Time;durP1;ratioP1;P1;durP2;ratioP2;P2;SDS_P1;SDS_P2;PMS_P1;PMS_P2;Temp;Humidity;BMP_temperature;BMP_pressure;BME280_temperature;BME280_humidity;BME280_pressure;Samples;Min_cycle;Max_cycle;Signal;HPM_P1;HPM_P2
2022/05/20 00:01:03;;;;;;;9.80;5.95;;;;;;;8.88;63.33;99855.31;6253393;22;20026;-80
2022/05/20 00:03:33;;;;;;;9.18;5.32;;;;;;;8.77;63.38;99838.88;6264589;22;20040;-79
2022/05/20 00:06:00;;;;;;;8.70;6.00;;;;;;;8.88;63.16;99863.09;6254644;23;20031;-82
2022/05/20 00:08:27;;;;;;;9.45;6.22;;;;;;;8.69;63.11;99819.00;6253316;23;20016;-78
2022/05/20 00:10:54;;;;;;;9.35;5.93;;;;;;;8.92;63.18;99859.63;6224516;23;20020;-83
2022/05/20 00:13:22;;;;;;;9.23;5.72;;;;;;;8.86;63.33;99846.66;6246411;23;20016;-80
2022/05/20 00:15:48;;;;;;;11.57;6.55;;;;;;;8.66;62.77;99828.50;6218167;23;20398;-81
2022/05/20 00:18:14;;;;;;;12.35;5.88;;;;;;;8.85;62.91;99870.88;6244733;22;20019;-85
2022/05/20 00:20:41;;;;;;;9.07;4.95;;;;;;;8.84;62.94;99879.53;6244318;22;20081;-81
2022/05/20 00:23:06;;;;;;;9.40;5.65;;;;;;;8.68;63.12;99848.41;6242930;23;20023;-81
2022/05/20 00:25:48;;;;;;;6.45;4.80;;;;;;;8.74;62.80;99869.13;6193450;23;20051;-80
2022/05/20 00:28:23;;;;;;;8.77;5.28;;;;;;;8.77;62.97;99878.66;6242434;23;20020;-84
2022/05/20 00:31:05;;;;;;;8.63;5.05;;;;;;;8.77;62.78;99875.19;6217780;23;20487;-80
2022/05/20 00:33:32;;;;;;;7.82;5.30;;;;;;;8.55;62.60;99851.84;6219430;23;20012;-82
2022/05/20 00:35:59;;;;;;;7.30;4.90;;;;;;;8.67;62.62;99883.00;6245766;22;20322;-82
2022/05/20 00:38:26;;;;;;;10.57;5.47;;;;;;;8.64;62.51;99887.28;6244974;23;20027;-81
2022/05/20 00:41:03;;;;;;;8.10;4.95;;;;;;;8.61;62.43;99895.97;6245793;23;20079;-80
2022/05/20 00:43:44;;;;;;;11.43;5.10;;;;;;;8.53;62.82;99874.31;6244663;22;20446;-81
2022/05/20 00:46:14;;;;;;;6.75;4.78;;;;;;;8.61;63.10;99885.56;6247070;23;20024;-79
2022/05/20 00:48:40;;;;;;;7.60;5.10;;;;;;;8.62;63.04;99884.72;6249454;22;20020;-80
2022/05/20 00:51:26;;;;;;;8.40;5.22;;;;;;;8.65;63.04;99891.63;6252227;22;20054;-83
2022/05/20 00:54:07;;;;;;;8.13;4.93;;;;;;;8.57;63.07;99870.88;6201024;22;20019;-86
2022/05/20 00:56:44;;;;;;;10.70;5.70;;;;;;;8.73;63.17;99895.94;6226729;22;20043;-81
2022/05/20 00:59:15;;;;;;;13.23;6.57;;;;;;;8.69;63.20;99895.94;6227517;22;20042;-84
2022/05/20 01:01:41;;;;;;;10.55;5.88;;;;;;;8.61;63.22;99871.75;6278472;22;20016;-80
2022/05/20 01:04:07;;;;;;;15.88;6.20;;;;;;;8.80;63.04;99896.84;6251101;22;20448;-82
2022/05/20 01:06:33;;;;;;;11.45;5.60;;;;;;;8.78;63.13;99897.69;6277669;22;20016;-79
2022/05/20 01:08:59;;;;;;;7.80;5.45;;;;;;;8.70;62.71;99888.19;6178001;22;20025;-80
2022/05/20 01:11:26;;;;;;;10.70;5.32;;;;;;;8.78;62.66;99903.75;6253824;22;20063;-79
2022/05/20 01:13:53;;;;;;;8.80;5.03;;;;;;;8.74;62.56;99900.28;6223944;22;20456;-82
2022/05/20 01:16:19;;;;;;;9.02;4.63;;;;;;;8.77;62.12;99901.13;6247523;22;20038;-83
2022/05/20 01:18:47;;;;;;;7.82;4.38;;;;;;;8.85;62.26;99912.41;6222671;22;20379;-82
2022/05/20 01:21:14;;;;;;;6.60;4.40;;;;;;;8.83;61.76;99916.72;6225227;22;20360;-80
2022/05/20 01:23:40;;;;;;;7.70;4.05;;;;;;;8.70;61.02;99921.91;6254627;22;20012;-84
2022/05/20 01:26:06;;;;;;;7.78;4.20;;;;;;;8.46;61.54;99889.00;6251515;22;20565;-81
2022/05/20 01:28:34;;;;;;;7.80;4.05;;;;;;;8.71;61.78;99931.44;6277648;22;20103;-81
2022/05/20 01:31:24;;;;;;;8.10;4.70;;;;;;;8.47;61.21;99892.47;6226964;22;20015;-79
2022/05/20 01:35:08;;;;;;;;;;;;;;;;;;;;;
2022/05/20 01:38:31;;;;;;;5.50;3.40;;;;;;;7.98;60.99;99829.28;6136577;22;20019;-81
2022/05/20 01:41:57;;;;;;;7.20;3.35;;;;;;;8.75;60.90;99953.03;6222693;22;20505;-80
2022/05/20 01:45:31;;;;;;;;;;;;;;;;;;;;;
2022/05/20 01:49:08;;;;;;;6.53;3.08;;;;;;;8.76;60.52;99953.91;6284108;22;20031;-78
2022/05/20 01:59:40;;;;;;;6.20;3.05;;;;;;;8.58;59.87;99929.66;6099375;23;20022;-82
2022/05/20 02:02:38;;;;;;;5.82;2.60;;;;;;;7.94;59.59;99823.25;6198158;23;20062;-84
2022/05/20 02:05:24;;;;;;;3.67;2.33;;;;;;;8.69;59.18;99948.72;6245127;23;20476;-84
2022/05/20 02:07:57;;;;;;;5.20;2.83;;;;;;;8.88;59.16;99974.69;6245880;23;20125;-81
2022/05/20 02:10:34;;;;;;;3.75;2.65;;;;;;;8.70;58.58;99945.25;6245181;23;20020;-81
2022/05/20 02:13:02;;;;;;;4.13;2.38;;;;;;;8.84;58.54;99975.53;6244858;23;20390;-82
2022/05/20 02:15:39;;;;;;;5.22;2.40;;;;;;;8.87;58.47;99980.75;6246102;23;20016;-83
2022/05/20 02:18:09;;;;;;;3.40;2.15;;;;;;;8.79;57.98;99982.44;6219662;23;20046;-82
2022/05/20 02:20:42;;;;;;;3.75;2.10;;;;;;;8.87;57.62;99985.94;6246120;23;20020;-85
2022/05/20 02:23:14;;;;;;;2.50;2.22;;;;;;;8.82;57.64;99974.66;6248467;23;20035;-82
2022/05/20 02:25:46;;;;;;;3.95;1.98;;;;;;;8.82;57.41;99959.09;6254541;23;20020;-81
2022/05/20 02:28:19;;;;;;;3.55;2.20;;;;;;;9.13;57.41;100000.66;6258883;23;20120;-82
2022/05/20 02:30:46;;;;;;;6.00;2.15;;;;;;;9.16;56.65;100001.50;6252938;23;20037;-84
2022/05/20 02:33:22;;;;;;;3.75;2.00;;;;;;;9.03;56.09;99990.25;6244951;23;20050;-84
2022/05/20 02:35:49;;;;;;;3.95;2.10;;;;;;;9.12;56.24;99993.72;6218898;23;20445;-81
2022/05/20 02:41:49;;;;;;;4.15;2.20;;;;;;;9.36;55.70;100007.56;6246712;23;20440;-82
2022/05/20 02:44:21;;;;;;;4.60;2.58;;;;;;;8.70;55.52;99892.50;6248604;22;20012;-80
2022/05/20 02:50:27;;;;;;;3.85;2.22;;;;;;;9.46;54.45;100001.50;6194085;23;20412;-86
2022/05/20 02:52:53;;;;;;;3.13;2.15;;;;;;;9.49;54.71;99996.28;6249319;22;20020;-83
2022/05/20 02:55:19;;;;;;;4.60;1.77;;;;;;;9.42;54.12;99971.19;6251819;23;20063;-82
2022/05/20 02:57:45;;;;;;;2.10;1.60;;;;;;;9.54;53.52;99984.19;6199217;23;20019;-83
2022/05/20 03:05:43;;;;;;;4.68;2.83;;;;;;;9.52;53.00;100017.09;6228124;23;20026;-81
2022/05/20 03:08:09;;;;;;;4.35;3.03;;;;;;;9.45;52.98;100003.25;6266953;23;20024;-81
2022/05/20 03:10:35;;;;;;;4.35;2.75;;;;;;;9.38;51.99;100000.66;6211247;23;20323;-85
2022/05/20 03:13:03;;;;;;;4.32;2.97;;;;;;;9.51;52.38;100015.34;6250775;23;20027;-80
2022/05/20 03:15:30;;;;;;;4.85;3.00;;;;;;;9.60;52.58;100011.88;6249964;23;20042;-83
2022/05/20 03:17:56;;;;;;;2.40;1.90;;;;;;;9.49;51.53;99985.91;6224969;23;20020;-83
2022/05/20 03:20:23;;;;;;;2.17;1.52;;;;;;;9.59;51.93;100010.13;6246116;23;20390;-80
2022/05/20 03:22:49;;;;;;;3.85;1.40;;;;;;;9.59;51.85;100020.53;6243705;23;20046;-79
2022/05/20 03:25:15;;;;;;;2.30;1.77;;;;;;;9.68;51.57;100024.84;6219070;23;20404;-83
2022/05/20 03:27:41;;;;;;;3.33;1.85;;;;;;;9.65;51.49;100005.78;6245376;23;20347;-81
2022/05/20 03:30:11;;;;;;;3.53;2.15;;;;;;;9.76;51.06;100026.56;6244591;22;20464;-82
2022/05/20 03:32:39;;;;;;;4.05;2.63;;;;;;;9.67;51.15;100010.13;6242683;23;20090;-83
2022/05/20 03:35:07;;;;;;;3.72;2.08;;;;;;;9.80;50.41;100017.03;6246244;23;20070;-83
2022/05/20 03:37:33;;;;;;;2.20;1.83;;;;;;;9.86;50.41;100016.16;6220711;23;20476;-79
2022/05/20 03:40:00;;;;;;;3.72;2.22;;;;;;;10.02;50.36;100022.19;6244622;23;20020;-82
2022/05/20 03:42:27;;;;;;;3.10;1.70;;;;;;;10.18;50.16;100036.84;6245743;22;20086;-82
2022/05/20 03:44:53;;;;;;;2.88;1.60;;;;;;;10.23;49.58;100039.44;6246285;23;20012;-79
2022/05/20 03:47:19;;;;;;;5.82;1.92;;;;;;;10.36;49.64;100055.84;6247225;23;20484;-79
2022/05/20 03:49:46;;;;;;;4.63;2.00;;;;;;;10.30;49.51;100035.06;6218541;23;20476;-80
2022/05/20 03:52:14;;;;;;;5.10;2.38;;;;;;;10.53;49.26;100056.69;6244537;23;20024;-79
2022/05/20 03:54:42;;;;;;;2.65;1.90;;;;;;;10.64;48.84;100068.78;6220372;23;20069;-80
2022/05/20 03:57:09;;;;;;;2.28;1.73;;;;;;;10.59;48.92;100042.81;6229009;23;20020;-78
2022/05/20 03:59:36;;;;;;;3.05;1.65;;;;;;;10.68;48.87;100044.50;6249097;23;20016;-81
2022/05/20 04:02:09;;;;;;;6.65;1.33;;;;;;;10.73;48.64;100053.09;6247324;22;20016;-82
2022/05/20 04:04:38;;;;;;;2.47;1.33;;;;;;;10.78;47.68;100073.94;6245074;23;20016;-83
2022/05/20 04:07:38;;;;;;;2.28;1.40;;;;;;;10.72;48.16;100059.19;6245174;23;20408;-83
2022/05/20 04:10:12;;;;;;;2.83;1.80;;;;;;;10.60;46.79;100022.84;6226368;23;20036;-79
2022/05/20 04:12:41;;;;;;;2.22;1.55;;;;;;;11.07;47.05;100068.53;6217297;23;20074;-78
2022/05/20 04:15:13;;;;;;;7.95;1.60;;;;;;;11.07;46.08;100060.72;6245056;22;20515;-83
2022/05/20 04:17:40;;;;;;;;;;;;;;;11.32;45.86;100084.00;6218177;23;20020;-84
2022/05/20 04:20:07;;;;;;;2.70;1.55;;;;;;;11.33;44.87;100088.34;6243364;23;19934;-82
2022/05/20 04:22:38;;;;;;;2.42;1.90;;;;;;;11.35;44.65;100091.81;6243120;23;20026;-86
2022/05/20 04:25:05;;;;;;;2.38;1.50;;;;;;;11.45;44.59;100097.81;6243819;23;20012;-83
2022/05/20 04:27:31;;;;;;;4.43;1.58;;;;;;;11.44;43.81;100081.28;6245091;22;20100;-79
2022/05/20 04:29:59;;;;;;;1.85;1.30;;;;;;;11.65;43.98;100089.81;6218059;23;21014;-86
2022/05/20 04:32:25;;;;;;;2.38;1.30;;;;;;;11.96;43.66;100084.31;6217959;23;20027;-82
2022/05/20 04:34:51;;;;;;;3.10;1.70;;;;;;;12.00;42.69;100062.56;6242846;23;20016;-81
2022/05/20 04:37:27;;;;;;;2.67;1.70;;;;;;;12.02;41.73;100071.25;6244172;23;20015;-85
2022/05/20 04:39:54;;;;;;;2.20;1.73;;;;;;;11.81;42.26;100037.50;6219013;23;20040;-81
2022/05/20 04:47:53;;;;;;;2.17;1.50;;;;;;;12.32;41.86;100097.03;6221821;23;20478;-84
2022/05/20 04:50:19;;;;;;;2.30;1.55;;;;;;;12.32;41.69;100066.56;6267713;22;20016;-79
2022/05/20 04:52:45;;;;;;;2.78;1.60;;;;;;;12.67;41.26;100081.81;6277140;22;20027;-83
2022/05/20 04:55:12;;;;;;;1.83;1.33;;;;;;;12.53;40.86;100058.50;6254431;22;20065;-80
2022/05/20 04:57:47;;;;;;;4.82;1.08;;;;;;;12.86;40.49;100103.31;6260561;22;20015;-80
2022/05/20 05:00:29;;;;;;;1.58;0.95;;;;;;;12.67;40.38;100092.25;6251233;22;20019;-84
2022/05/20 05:02:56;;;;;;;1.30;1.10;;;;;;;12.86;40.24;100093.75;6278390;22;20035;-81
2022/05/20 05:05:25;;;;;;;1.50;1.02;;;;;;;13.18;39.92;100100.22;6226568;22;20012;-81
2022/05/20 05:07:54;;;;;;;2.08;0.95;;;;;;;13.37;39.77;100102.56;6251141;22;20031;-82
2022/05/20 05:10:26;;;;;;;2.63;1.27;;;;;;;13.50;39.53;100098.91;6225437;22;20025;-81
2022/05/20 05:12:53;;;;;;;1.85;1.42;;;;;;;13.52;39.30;100077.97;6252733;22;20027;-80
2022/05/20 05:15:19;;;;;;;2.30;1.15;;;;;;;13.72;38.81;100095.94;6227841;22;20016;-82
2022/05/20 05:20:56;;;;;;;8.40;4.97;;;;;;;13.36;39.18;100046.81;6254174;22;20103;-80
2022/05/20 05:23:55;;;;;;;2.72;1.20;;;;;;;14.43;38.52;100093.75;6227680;22;20081;-81
2022/05/20 05:26:32;;;;;;;11.40;6.75;;;;;;;14.84;37.60;100073.72;6229886;22;20027;-79
2022/05/20 05:29:01;;;;;;;3.70;1.65;;;;;;;15.15;36.82;100108.84;6225368;22;20340;-82
2022/05/20 05:31:27;;;;;;;9.88;5.65;;;;;;;15.36;36.25;100102.25;6243365;22;20019;-82
2022/05/20 05:33:54;;;;;;;3.45;1.70;;;;;;;15.34;35.99;100098.81;6227239;22;20012;-83
2022/05/20 05:36:20;;;;;;;10.90;6.30;;;;;;;15.39;36.01;100062.84;6227053;22;20022;-84
2022/05/20 05:39:42;;;;;;;3.70;2.25;;;;;;;16.12;35.56;99995.38;6227337;22;20043;-80
2022/05/20 05:42:33;;;;;;;3.17;1.20;;;;;;;19.65;32.99;100044.44;6228436;22;20020;-79
2022/05/20 05:45:39;;;;;;;5.53;3.75;;;;;;;22.74;29.51;100071.88;6226245;22;20034;-80
2022/05/20 05:48:18;;;;;;;2.38;1.40;;;;;;;24.39;27.97;100042.78;6239299;22;20024;-79
2022/05/20 05:50:47;;;;;;;4.75;2.75;;;;;;;25.96;26.45;100046.75;6277438;22;20023;-81
2022/05/20 05:53:24;;;;;;;2.60;1.77;;;;;;;27.25;24.02;100047.41;6277591;22;20027;-79
2022/05/20 05:56:02;;;;;;;2.80;1.90;;;;;;;28.46;22.92;100051.53;6277354;22;20448;-82
2022/05/20 05:58:32;;;;;;;2.08;1.20;;;;;;;29.60;21.08;100038.66;6250370;22;20019;-81
2022/05/20 06:01:15;;;;;;;2.70;1.17;;;;;;;29.49;20.01;99969.91;6250609;22;20437;-85
2022/05/20 06:03:56;;;;;;;2.58;1.80;;;;;;;30.14;18.80;99975.00;6256172;22;20011;-83
2022/05/20 06:06:35;;;;;;;3.47;1.65;;;;;;;30.84;18.17;99994.81;6253177;22;20020;-84
2022/05/20 06:09:14;;;;;;;2.10;1.70;;;;;;;32.12;17.31;100038.50;6252979;22;20020;-83
2022/05/20 06:12:23;;;;;;;1.73;1.33;;;;;;;32.93;15.54;100049.56;6251028;22;20043;-81
2022/05/20 06:15:14;;;;;;;1.50;1.35;;;;;;;33.63;15.20;100041.59;6251231;22;20011;-82
2022/05/20 06:18:01;;;;;;;1.88;1.40;;;;;;;34.45;14.34;100013.34;6227003;22;20512;-81
2022/05/20 06:20:29;;;;;;;3.03;1.65;;;;;;;34.99;13.32;100048.09;6252212;22;20151;-82
2022/05/20 06:22:57;;;;;;;4.00;1.80;;;;;;;35.22;13.26;100027.66;6253693;22;20025;-82
2022/05/20 06:25:28;;;;;;;1.42;1.33;;;;;;;36.44;12.72;100065.47;6282876;22;20019;-83
2022/05/20 06:27:54;;;;;;;1.27;1.10;;;;;;;36.94;12.56;100081.50;6257046;22;20026;-84
2022/05/20 06:30:21;;;;;;;2.75;1.20;;;;;;;37.70;11.83;100058.19;6258873;22;20352;-80
2022/05/20 06:32:47;;;;;;;1.63;0.98;;;;;;;37.75;10.96;100058.47;6234636;22;20421;-81
2022/05/20 06:41:16;;;;;;;1.17;1.08;;;;;;;38.18;9.67;100011.69;6284493;22;20021;-82
2022/05/20 06:43:51;;;;;;;2.65;1.02;;;;;;;38.22;10.18;100043.69;6257280;22;20356;-79
2022/05/20 06:46:21;;;;;;;1.25;1.15;;;;;;;38.71;9.52;100042.22;6227922;22;20050;-82
2022/05/20 06:49:07;;;;;;;1.38;1.20;;;;;;;38.57;9.25;100013.19;6205002;22;20043;-84
2022/05/20 06:51:43;;;;;;;1.40;1.30;;;;;;;38.85;9.37;100015.19;6257866;23;20016;-82
2022/05/20 06:54:12;;;;;;;3.13;1.20;;;;;;;39.66;9.16;100078.44;6259943;23;20016;-82
2022/05/20 06:56:41;;;;;;;6.43;5.88;;;;;;;40.21;8.76;100040.47;6226421;23;20081;-81
2022/05/20 06:59:11;;;;;;;15.75;14.15;;;;;;;41.10;8.09;100057.75;6259053;23;20023;-79
2022/05/20 07:01:46;;;;;;;2.78;2.15;;;;;;;41.84;8.00;100067.78;6235511;23;20020;-80
2022/05/20 07:04:18;;;;;;;4.30;2.65;;;;;;;41.77;8.02;100069.69;6261944;23;20035;-81
2022/05/20 07:06:44;;;;;;;5.13;3.40;;;;;;;40.97;8.47;100038.59;6262634;23;20162;-80
2022/05/20 07:10:00;;;;;;;3.72;3.25;;;;;;;38.80;8.63;100074.69;6257687;22;20020;31
2022/05/20 07:13:05;;;;;;;8.27;4.95;;;;;;;36.40;9.47;99984.75;6124318;22;20008;-78
2022/05/20 07:18:42;;;;;;;4.97;4.53;;;;;;;39.59;8.58;100032.13;6170793;23;20025;-79
2022/05/20 07:21:31;;;;;;;12.70;5.10;;;;;;;40.45;8.11;100016.47;6165555;23;20035;-82
2022/05/20 07:24:21;;;;;;;7.25;3.50;;;;;;;41.84;7.40;100054.97;6202348;23;20026;-77
2022/05/20 07:26:57;;;;;;;2.30;1.83;;;;;;;42.02;7.01;99995.28;6192923;23;20063;-80
2022/05/20 07:29:46;;;;;;;12.95;9.88;;;;;;;42.86;6.99;100042.59;6153044;23;20103;-82
2022/05/20 07:32:20;;;;;;;;;;;;;;;43.47;6.37;100077.72;6165019;23;20103;-80
2022/05/20 07:34:46;;;;;;;2.88;1.80;;;;;;;42.89;7.19;100083.19;6190770;23;19915;-80
2022/05/20 07:37:18;;;;;;;2.30;1.80;;;;;;;42.78;6.58;100067.44;6141439;23;20021;-80
2022/05/20 07:39:58;;;;;;;2.75;1.67;;;;;;;43.47;5.74;100080.44;6192633;23;20020;-82
2022/05/20 07:42:33;;;;;;;2.28;1.38;;;;;;;43.65;6.25;100057.75;6202982;23;20432;-81
2022/05/20 07:44:59;;;;;;;3.55;2.35;;;;;;;43.76;5.73;100010.44;6219258;23;20012;-83
2022/05/20 07:47:26;;;;;;;5.85;3.33;;;;;;;44.36;5.59;100019.00;6193489;23;20220;-80
2022/05/20 07:50:04;;;;;;;4.97;3.03;;;;;;;44.23;5.92;100041.94;6175299;23;20034;-80
2022/05/20 07:55:37;;;;;;;3.35;2.70;;;;;;;45.05;5.44;100089.13;6193754;23;20446;-78
2022/05/20 07:58:07;;;;;;;3.78;3.35;;;;;;;44.92;5.60;100099.22;6144082;23;20021;-83
2022/05/20 08:01:37;;;;;;;2.83;2.60;;;;;;;43.79;5.10;100042.88;6217303;23;20019;-81
2022/05/20 08:07:13;;;;;;;6.47;5.88;;;;;;;44.32;5.29;100045.22;6217176;23;20118;-78
2022/05/20 08:09:41;;;;;;;1.50;1.40;;;;;;;44.27;5.06;100062.31;6141247;23;20026;-79
2022/05/20 08:12:17;;;;;;;1.83;1.50;;;;;;;44.41;4.97;100092.31;6191177;23;20311;-79
2022/05/20 08:14:55;;;;;;;1.55;1.45;;;;;;;44.42;4.98;100022.72;6225346;22;20023;-80
2022/05/20 08:22:22;;;;;;;;;;;;;;;;;;;;;
2022/05/20 08:26:17;;;;;;;;;;;;;;;;;;;;;
2022/05/20 08:29:03;;;;;;;13.20;11.95;;;;;;;45.05;4.30;100086.38;6129842;23;20017;-80
2022/05/20 08:31:52;;;;;;;3.50;3.17;;;;;;;44.46;4.38;100070.56;6120089;23;20012;-79
2022/05/20 08:34:18;;;;;;;6.50;5.30;;;;;;;44.54;4.66;100081.19;6247959;23;20020;-79
2022/05/20 08:36:50;;;;;;;3.35;2.90;;;;;;;44.29;4.64;100095.81;6224268;23;20019;-79
2022/05/20 08:39:16;;;;;;;5.95;5.22;;;;;;;44.75;4.74;100088.09;6195455;23;20024;-82
2022/05/20 08:41:48;;;;;;;4.47;3.42;;;;;;;44.86;4.59;100060.94;6194041;23;20046;-82
2022/05/20 08:44:18;;;;;;;2.63;2.42;;;;;;;44.56;4.53;100053.56;6245953;23;20056;-84
2022/05/20 08:46:46;;;;;;;2.30;2.10;;;;;;;44.92;4.33;100049.84;6170553;23;20023;-84
2022/05/20 08:49:18;;;;;;;3.35;3.05;;;;;;;45.49;4.40;100064.97;6218752;23;20090;-84
2022/05/20 08:51:53;;;;;;;2.35;1.70;;;;;;;45.69;4.42;100061.06;6198228;23;20449;-80
2022/05/20 08:54:22;;;;;;;3.53;3.15;;;;;;;45.70;4.72;100062.72;6221592;23;20043;-83
2022/05/20 08:56:51;;;;;;;2.27;2.13;;;;;;;45.92;4.11;100056.59;6221917;23;20043;-80
2022/05/20 08:59:18;;;;;;;;;;;;;;;45.77;4.58;100060.69;6195743;23;20334;-77
2022/05/20 09:01:48;;;;;;;4.85;4.45;;;;;;;45.33;4.70;100054.72;6219946;23;19912;-80
2022/05/20 09:04:17;;;;;;;3.20;2.83;;;;;;;45.45;4.18;100062.97;6203943;23;20020;-78
2022/05/20 09:07:01;;;;;;;2.72;2.50;;;;;;;45.15;4.09;100041.91;6252344;23;20087;-77
2022/05/20 09:09:40;;;;;;;5.55;2.50;;;;;;;45.02;4.38;100060.28;6198847;23;20127;-79
2022/05/20 09:12:07;;;;;;;3.88;3.58;;;;;;;44.87;4.52;100068.94;6254282;23;20016;-77
2022/05/20 09:17:21;;;;;;;4.28;3.60;;;;;;;45.47;4.20;100053.41;6250830;22;20019;-78
2022/05/20 09:19:57;;;;;;;2.70;2.50;;;;;;;45.42;4.07;100042.28;6252615;22;20019;-75
2022/05/20 09:22:33;;;;;;;32.42;29.40;;;;;;;45.17;4.00;100042.50;6251965;22;20016;-78
2022/05/20 09:25:01;;;;;;;59.30;53.33;;;;;;;45.41;4.07;100040.63;6276176;22;20092;-79
2022/05/20 09:27:32;;;;;;;17.45;15.70;;;;;;;45.25;4.35;100040.25;6226174;22;20106;-77
2022/05/20 09:30:00;;;;;;;6.60;5.85;;;;;;;45.30;4.39;100035.97;6197564;22;20035;-76
2022/05/20 09:32:34;;;;;;;11.23;10.07;;;;;;;45.53;4.24;100040.59;6231949;22;20022;-77
2022/05/20 09:35:06;;;;;;;10.00;8.52;;;;;;;45.31;4.00;100032.97;6250788;22;20023;-79
2022/05/20 09:37:35;;;;;;;6.05;5.32;;;;;;;45.06;3.66;100034.00;6250002;22;20463;-77
2022/05/20 09:40:39;;;;;;;6.63;4.27;;;;;;;44.96;4.31;100040.06;6249698;22;20095;-79
2022/05/20 09:43:22;;;;;;;7.93;4.57;;;;;;;44.16;4.66;100027.50;6250628;22;20031;-79
2022/05/20 09:45:50;;;;;;;6.35;5.75;;;;;;;44.03;4.46;100031.19;6279335;22;20026;-77
2022/05/20 09:48:23;;;;;;;6.72;3.95;;;;;;;44.03;4.19;100029.28;6254407;22;20039;-79
2022/05/20 09:51:15;;;;;;;4.18;3.75;;;;;;;43.23;4.57;100017.28;6255671;22;20019;-78
2022/05/20 09:54:18;;;;;;;8.57;6.78;;;;;;;43.32;4.69;100021.41;6254010;22;20023;-77
2022/05/20 09:56:47;;;;;;;96.22;84.03;;;;;;;43.48;4.37;100025.47;6284191;22;20016;-77
2022/05/20 09:59:44;;;;;;;13.50;11.55;;;;;;;43.73;4.41;100019.13;6288934;22;20019;-75
2022/05/20 10:02:18;;;;;;;5.20;4.70;;;;;;;43.09;4.67;100013.81;6261051;22;20034;-79
2022/05/20 10:05:05;;;;;;;8.75;7.95;;;;;;;42.25;4.53;100008.41;6270750;22;20003;-79
2022/05/20 10:07:43;;;;;;;10.48;8.07;;;;;;;41.00;4.67;100010.91;6299338;22;20054;-77
2022/05/20 10:10:18;;;;;;;2.53;1.50;;;;;;;38.81;5.14;100006.56;6298090;22;20035;-77
2022/05/20 10:12:49;;;;;;;6.18;3.05;;;;;;;38.79;5.55;100011.34;6270838;22;20022;-79
2022/05/20 10:15:28;;;;;;;4.03;2.92;;;;;;;39.26;5.91;100008.22;6261312;22;20027;-80
2022/05/20 10:18:24;;;;;;;6.07;3.38;;;;;;;38.85;6.01;100010.56;6280331;22;20122;-78
2022/05/20 10:21:35;;;;;;;3.80;2.90;;;;;;;39.64;5.70;100010.59;6280594;22;20433;-78
2022/05/20 10:24:23;;;;;;;1.63;1.52;;;;;;;38.21;6.08;100009.41;6231442;22;20012;-78
2022/05/20 10:27:03;;;;;;;5.18;2.47;;;;;;;35.95;6.63;99992.56;6250084;22;20016;-79
2022/05/20 10:33:01;;;;;;;3.10;1.60;;;;;;;30.94;8.28;100001.00;6250163;22;20015;-77
2022/05/20 10:35:36;;;;;;;1.45;1.30;;;;;;;29.50;8.96;100014.47;6263104;22;20392;-76
2022/05/20 10:38:23;;;;;;;2.78;1.50;;;;;;;28.03;9.85;100018.34;6250024;22;20063;-79
2022/05/20 10:41:04;;;;;;;2.00;1.40;;;;;;;26.73;10.85;100015.56;6252552;22;20116;-77
2022/05/20 10:49:37;;;;;;;3.63;1.70;;;;;;;24.45;12.23;100021.16;6257122;22;20015;-76
2022/05/20 10:52:22;;;;;;;1.35;1.25;;;;;;;23.94;12.38;100026.94;6255339;22;20022;-78
2022/05/20 10:55:19;;;;;;;25.85;16.20;;;;;;;23.44;12.81;100010.44;6280049;22;20023;-79
2022/05/20 10:58:10;;;;;;;24.92;17.45;;;;;;;23.14;13.07;100024.53;6203192;22;20024;-78
2022/05/20 11:00:50;;;;;;;30.10;20.73;;;;;;;22.55;13.56;100010.13;6251528;22;20020;-77
2022/05/20 11:03:37;;;;;;;25.83;17.15;;;;;;;22.31;14.25;100022.91;6278033;22;20034;-77
2022/05/20 11:06:06;;;;;;;7.95;5.70;;;;;;;21.95;14.47;100016.00;6250541;22;20106;-79
2022/05/20 11:09:04;;;;;;;9.32;6.80;;;;;;;21.63;14.29;100016.75;6248348;22;20425;-78
2022/05/20 11:11:50;;;;;;;2.28;1.50;;;;;;;21.18;14.62;100021.63;6140207;22;20411;-80
2022/05/20 11:14:41;;;;;;;2.67;1.92;;;;;;;20.06;15.17;100012.72;6249096;22;20043;-78
2022/05/20 11:17:40;;;;;;;8.05;6.07;;;;;;;19.75;15.63;100015.84;6275664;22;20020;-79
2022/05/20 11:20:34;;;;;;;4.85;2.78;;;;;;;19.62;15.62;100018.16;6280441;22;20069;-77
2022/05/20 11:23:12;;;;;;;9.10;4.75;;;;;;;19.18;16.26;100006.78;6279330;22;20087;-79
2022/05/20 11:25:47;;;;;;;8.93;5.80;;;;;;;19.03;16.66;100025.88;6252757;22;20020;-79
2022/05/20 11:28:19;;;;;;;10.32;4.55;;;;;;;18.89;16.98;100027.25;6282118;22;20015;-77
2022/05/20 11:30:51;;;;;;;9.05;5.47;;;;;;;18.83;17.09;100027.50;6227016;22;20107;-77
2022/05/20 11:33:36;;;;;;;4.55;2.05;;;;;;;18.76;17.17;100012.84;6225042;22;20011;-78
2022/05/20 11:36:39;;;;;;;11.00;6.93;;;;;;;18.69;17.67;100019.25;6278886;22;20012;-77
2022/05/20 11:39:11;;;;;;;4.25;2.85;;;;;;;18.52;18.11;100012.88;6252812;22;20063;-79
2022/05/20 11:41:59;;;;;;;4.80;1.30;;;;;;;18.31;18.21;100015.41;6250683;22;20049;-77
2022/05/20 11:45:10;;;;;;;4.57;2.50;;;;;;;17.71;18.31;100015.78;6254995;22;20141;-75
2022/05/20 11:47:58;;;;;;;5.80;3.95;;;;;;;17.41;18.09;100004.56;6256226;22;20356;-76
2022/05/20 11:50:36;;;;;;;3.50;1.70;;;;;;;17.29;18.46;99998.78;6282328;22;20035;-79
2022/05/20 11:53:34;;;;;;;15.35;11.45;;;;;;;17.25;18.29;99993.69;6278225;22;20023;-78
2022/05/20 11:56:51;;;;;;;10.90;6.68;;;;;;;17.06;18.49;99991.69;6227713;22;20080;-80
2022/05/20 11:59:25;;;;;;;18.58;11.98;;;;;;;16.73;18.77;99934.00;6225666;22;20023;-78
2022/05/20 12:01:57;;;;;;;8.82;6.00;;;;;;;17.05;18.90;99989.97;6279014;22;20019;-80
2022/05/20 12:04:27;;;;;;;12.75;8.88;;;;;;;16.53;19.30;99940.75;6281289;22;20015;-78
2022/05/20 12:07:00;;;;;;;3.05;2.05;;;;;;;16.58;19.59;99958.13;6253413;22;20019;-82
2022/05/20 12:09:32;;;;;;;10.52;6.88;;;;;;;16.67;19.62;99981.47;6228687;22;20026;-83
2022/05/20 12:12:17;;;;;;;3.92;1.55;;;;;;;16.63;19.54;99993.00;6232856;22;20353;-81
2022/05/20 12:15:06;;;;;;;7.25;4.47;;;;;;;16.59;19.57;99973.00;6261567;22;20342;-78
2022/05/20 12:17:40;;;;;;;4.25;1.98;;;;;;;16.55;19.89;99983.59;6262460;22;20015;-79
2022/05/20 12:26:22;;;;;;;3.15;1.23;;;;;;;16.22;20.13;99977.59;6290439;22;20026;-81
2022/05/20 12:28:49;;;;;;;2.40;1.20;;;;;;;16.10;20.05;99976.19;6291415;22;20015;-77
2022/05/20 12:31:40;;;;;;;1.20;1.10;;;;;;;15.86;20.06;99964.63;6265465;22;20019;-83
2022/05/20 12:34:39;;;;;;;2.10;1.60;;;;;;;15.89;20.11;99965.41;6260774;22;20461;-78
2022/05/20 12:37:06;;;;;;;5.60;1.05;;;;;;;15.81;20.17;99967.31;6281750;22;20241;-81
2022/05/20 12:39:50;;;;;;;3.63;1.40;;;;;;;15.44;20.25;99898.41;6287569;22;20015;-75
2022/05/20 12:42:55;;;;;;;2.13;1.35;;;;;;;15.19;19.81;99864.13;6214376;22;20030;-76
2022/05/20 12:45:24;;;;;;;2.53;1.40;;;;;;;15.58;19.84;99953.09;6238761;22;20011;-75
2022/05/20 12:47:55;;;;;;;1.55;1.15;;;;;;;14.94;20.28;99870.00;6237327;22;20027;-76
2022/05/20 12:50:26;;;;;;;2.47;1.33;;;;;;;15.16;20.09;99916.63;6212873;22;20016;-76
2022/05/20 12:53:08;;;;;;;5.50;3.20;;;;;;;15.47;20.09;99934.16;6202829;22;20011;-76
2022/05/20 12:55:43;;;;;;;3.03;1.73;;;;;;;15.55;20.07;99932.22;6255699;22;20062;-79
2022/05/20 12:58:13;;;;;;;6.20;1.50;;;;;;;15.62;20.21;99940.78;6229843;22;20069;-75
2022/05/20 13:01:04;;;;;;;3.83;1.17;;;;;;;15.56;20.17;99933.06;6262242;22;20071;-77
2022/05/20 13:03:45;;;;;;;4.68;1.55;;;;;;;15.49;20.00;99930.59;6284250;22;20049;-78
2022/05/20 13:06:22;;;;;;;4.60;1.35;;;;;;;15.50;19.77;99939.34;6229102;23;20006;-76
2022/05/20 13:09:02;;;;;;;3.42;1.33;;;;;;;15.42;19.94;99928.19;6251906;23;20043;-77
2022/05/20 13:11:51;;;;;;;3.92;1.40;;;;;;;15.44;20.38;99931.63;6200163;23;20402;-77
2022/05/20 13:14:20;;;;;;;2.95;1.40;;;;;;;15.47;20.16;99926.31;6222926;23;20047;-77
2022/05/20 13:16:55;;;;;;;2.65;1.55;;;;;;;15.42;20.71;99926.44;6256780;23;20059;-77
2022/05/20 13:19:41;;;;;;;2.63;1.30;;;;;;;15.16;20.46;99893.91;6226490;23;20004;-77
2022/05/20 13:22:13;;;;;;;7.65;2.97;;;;;;;15.40;20.93;99923.00;6201111;23;20016;-77
2022/05/20 13:24:40;;;;;;;14.60;9.07;;;;;;;15.44;21.05;99923.75;6178840;23;20012;-80
2022/05/20 13:27:18;;;;;;;4.72;2.95;;;;;;;15.36;20.91;99909.09;6228947;23;20047;-77
2022/05/20 13:29:46;;;;;;;4.25;1.52;;;;;;;15.32;20.95;99891.75;6230019;23;20019;-78